Time;durP1;ratioP1;P1;durP2;ratioP2;P2;SDS_P1;SDS_P2;PMS_P1;PMS_P2;Temp;Humidity;BMP_temperature;BMP_pressure;BME280_temperature;BME280_humidity;BME280_pressure;Samples;Min_cycle;Max_cycle;Signal;HPM_P1;HPM_P2
2021/06/05 05:07:35;;;;;;;10.90;6.28;;;19.60;56.10;;;;;;4974579;28;20051;-82
2021/06/05 05:10:04;;;;;;;11.93;6.22;;;19.60;56.10;;;;;;4979801;28;20069;-86
2021/06/05 05:12:30;;;;;;;11.02;6.05;;;19.70;56.40;;;;;;4959280;28;20109;-86
2021/06/05 05:14:56;;;;;;;10.20;6.03;;;19.80;56.40;;;;;;4959124;28;20117;-87
2021/06/05 05:17:22;;;;;;;10.70;6.60;;;19.90;56.50;;;;;;4959653;28;20027;-86
2021/06/05 05:19:48;;;;;;;9.00;5.25;;;20.00;56.70;;;;;;4958932;28;20066;-86
2021/06/05 05:22:14;;;;;;;9.52;5.50;;;20.10;56.50;;;;;;4959329;28;20109;-86
2021/06/05 05:24:41;;;;;;;9.90;5.47;;;20.20;56.70;;;;;;4977341;28;20018;-86
2021/06/05 05:27:07;;;;;;;10.95;5.70;;;20.30;56.80;;;;;;4959864;28;20490;-86
2021/06/05 05:29:33;;;;;;;11.40;5.63;;;20.30;56.80;;;;;;4959072;28;20030;-86
2021/06/05 05:31:59;;;;;;;10.13;5.68;;;20.50;57.10;;;;;;4976181;28;20019;-86
2021/06/05 05:34:25;;;;;;;9.18;4.55;;;20.60;57.30;;;;;;4959057;28;20042;-86
2021/06/05 05:36:50;;;;;;;9.18;4.80;;;20.70;57.10;;;;;;4975990;28;20439;-86
2021/06/05 05:39:18;;;;;;;8.68;5.15;;;20.80;57.20;;;;;;4959090;28;20058;-86
2021/06/05 05:41:46;;;;;;;10.10;4.80;;;21.00;57.50;;;;;;4979849;28;20058;-86
2021/06/05 05:44:12;;;;;;;8.73;4.85;;;21.10;57.50;;;;;;4959092;28;20026;-86
2021/06/05 05:46:39;;;;;;;11.60;5.35;;;21.20;57.40;;;;;;4975955;28;20514;-86
2021/06/05 05:49:05;;;;;;;9.38;4.97;;;21.30;57.60;;;;;;4975897;28;20038;-86
2021/06/05 05:51:31;;;;;;;8.70;5.00;;;21.50;57.70;;;;;;4958850;28;20023;-86
2021/06/05 05:53:56;;;;;;;9.70;5.13;;;21.60;57.90;;;;;;4958434;28;20023;-86
2021/06/05 05:56:25;;;;;;;8.93;4.43;;;21.70;57.80;;;;;;4975991;28;20018;-86
2021/06/05 05:58:53;;;;;;;9.07;4.07;;;21.80;57.30;;;;;;4975774;28;20019;-86
2021/06/05 06:01:20;;;;;;;9.35;5.45;;;21.80;57.10;;;;;;4958775;28;20131;-86
2021/06/05 06:03:51;;;;;;;10.40;4.97;;;21.70;57.10;;;;;;4970130;28;20023;-87
2021/06/05 06:06:18;;;;;;;8.40;4.78;;;21.80;57.30;;;;;;4975258;28;20054;-86
2021/06/05 06:08:44;;;;;;;8.27;4.88;;;21.80;57.50;;;;;;4979005;28;20379;-86
2021/06/05 06:11:11;;;;;;;9.20;5.05;;;21.90;57.70;;;;;;4958193;28;20129;-86
2021/06/05 06:13:38;;;;;;;9.10;5.30;;;22.00;58.00;;;;;;4976389;28;20094;-86
2021/06/05 06:16:07;;;;;;;9.38;4.72;;;22.10;57.60;;;;;;4975839;28;20549;-86
2021/06/05 06:18:34;;;;;;;11.88;4.78;;;22.10;57.50;;;;;;4942258;28;20022;-86
2021/06/05 06:20:59;;;;;;;8.32;4.90;;;22.10;57.50;;;;;;4976427;28;20018;-86
2021/06/05 06:23:28;;;;;;;10.27;5.05;;;22.20;57.50;;;;;;4958338;28;20459;-86
2021/06/05 06:26:01;;;;;;;11.45;5.47;;;22.20;57.40;;;;;;4975411;28;20086;-86
2021/06/05 06:28:31;;;;;;;10.35;4.90;;;22.20;57.50;;;;;;4960684;28;20065;-84
2021/06/05 06:31:17;;;;;;;11.00;4.65;;;22.20;57.60;;;;;;4979439;28;20054;-89
2021/06/05 06:34:09;;;;;;;7.07;3.28;;;22.30;57.80;;;;;;4957757;28;20035;-91
2021/06/05 06:36:57;;;;;;;9.30;4.60;;;22.40;57.20;;;;;;4975380;28;20730;-92
2021/06/05 07:01:42;;;;;;;9.77;5.40;;;22.30;57.50;;;;;;5067476;23;20108;-88
2021/06/05 07:04:30;;;;;;;9.15;4.95;;;22.30;58.00;;;;;;4994800;28;20041;-88
2021/06/05 07:07:11;;;;;;;10.75;5.55;;;22.40;58.00;;;;;;5017101;28;20034;-88
2021/06/05 07:09:46;;;;;;;9.13;5.18;;;22.40;58.10;;;;;;4966240;28;20141;-88
2021/06/05 07:12:45;;;;;;;12.07;5.75;;;22.50;58.60;;;;;;4996479;28;20028;-88
2021/06/05 07:15:26;;;;;;;10.20;5.05;;;22.60;58.10;;;;;;5009268;28;20025;-88
2021/06/05 07:17:55;;;;;;;11.45;4.22;;;22.60;58.00;;;;;;4965890;28;20025;-87
2021/06/05 07:20:25;;;;;;;10.20;4.75;;;22.70;58.10;;;;;;5002940;28;20106;-87
2021/06/05 07:23:00;;;;;;;8.40;4.70;;;22.70;58.00;;;;;;4980244;28;20545;-86
2021/06/05 07:25:29;;;;;;;;;;;22.80;58.30;;;;;;4992162;28;20037;-87
2021/06/05 07:28:13;;;;;;;9.25;5.00;;;22.90;58.50;;;;;;4995971;28;19959;-87
2021/06/05 07:31:07;;;;;;;9.60;4.50;;;23.10;58.70;;;;;;5014003;28;20081;-87
2021/06/05 07:33:52;;;;;;;10.50;4.60;;;23.20;58.80;;;;;;5014462;28;20025;-87
2021/06/05 07:36:33;;;;;;;8.52;4.55;;;23.20;58.20;;;;;;4995980;28;20053;-87
2021/06/05 07:39:02;;;;;;;8.43;4.43;;;23.20;58.70;;;;;;4995232;28;20026;-87
2021/06/05 07:45:13;;;;;;;10.60;4.07;;;23.50;59.10;;;;;;5009175;28;20041;-89
2021/06/05 07:47:44;;;;;;;11.50;4.05;;;23.80;59.00;;;;;;5001441;28;20033;-87
2021/06/05 07:50:46;;;;;;;8.85;4.55;;;23.90;58.90;;;;;;4983802;28;20041;-88
2021/06/05 07:56:27;;;;;;;11.13;4.82;;;24.20;59.20;;;;;;5011897;28;20032;-89
2021/06/05 07:58:53;;;;;;;8.25;4.38;;;24.40;59.00;;;;;;5003000;28;20125;-88
2021/06/05 08:01:19;;;;;;;7.53;3.47;;;24.60;59.10;;;;;;5012951;28;20072;-89
2021/06/05 08:03:44;;;;;;;6.82;3.63;;;24.70;58.60;;;;;;4978732;28;20117;-89
2021/06/05 08:06:10;;;;;;;6.57;3.13;;;24.80;58.60;;;;;;4995556;28;20033;-89
2021/06/05 08:08:36;;;;;;;7.45;3.33;;;24.90;58.70;;;;;;5012626;28;20030;-88
2021/06/05 08:11:05;;;;;;;5.05;2.55;;;25.00;58.40;;;;;;5013295;28;20030;-90
2021/06/05 08:13:30;;;;;;;7.32;3.28;;;25.00;57.70;;;;;;4995010;28;20050;-88
2021/06/05 08:15:56;;;;;;;6.57;2.90;;;25.00;57.70;;;;;;4994997;28;20065;-89
2021/06/05 08:18:22;;;;;;;5.60;2.80;;;25.00;58.20;;;;;;5013123;28;20026;-88
2021/06/05 08:20:49;;;;;;;5.20;2.35;;;25.10;58.00;;;;;;5012261;28;20018;-88
2021/06/05 08:23:17;;;;;;;6.28;2.70;;;25.10;57.70;;;;;;4995337;28;20029;-87
2021/06/05 08:25:42;;;;;;;6.18;2.60;;;25.10;57.90;;;;;;5012259;28;20022;-87
2021/06/05 08:28:09;;;;;;;9.68;6.07;;;25.30;58.30;;;;;;4997476;28;20398;-86
2021/06/05 08:33:56;;;;;;;4.00;2.42;;;25.70;57.70;;;;;;4970896;28;20454;-89
2021/06/05 08:36:29;;;;;;;4.65;2.10;;;25.70;57.20;;;;;;4979776;28;20034;-87
2021/06/05 08:38:56;;;;;;;5.15;2.40;;;25.80;57.80;;;;;;5012891;28;20022;-87
2021/06/05 08:41:35;;;;;;;4.35;2.22;;;25.90;57.60;;;;;;4999827;28;20523;-87
2021/06/05 08:44:35;;;;;;;4.53;2.10;;;26.00;57.80;;;;;;5002714;28;20101;-87
2021/06/05 08:47:24;;;;;;;3.85;2.05;;;25.90;56.50;;;;;;5022846;28;20105;-85
2021/06/05 08:49:50;;;;;;;5.07;2.00;;;25.80;55.90;;;;;;5017981;28;20398;-86
2021/06/05 08:56:12;;;;;;;4.00;2.05;;;25.60;56.30;;;;;;5012636;28;20025;-89
2021/06/05 08:59:21;;;;;;;6.00;2.03;;;25.70;56.40;;;;;;4995152;28;20467;-91
2021/06/05 09:01:48;;;;;;;4.63;2.05;;;26.00;57.30;;;;;;5015160;28;20041;-87
2021/06/05 09:04:20;;;;;;;14.20;8.60;;;26.00;56.30;;;;;;5003781;28;20091;-87
2021/06/05 09:06:54;;;;;;;7.68;2.30;;;26.10;56.30;;;;;;5026192;28;20025;-85
2021/06/05 09:10:20;;;;;;;5.50;1.90;;;26.20;56.40;;;;;;5022138;28;20026;-89
2021/06/05 09:13:52;;;;;;;5.03;2.00;;;26.30;55.80;;;;;;4972444;28;20114;-89
2021/06/05 09:16:46;;;;;;;;;;;;;;;;;;;;;
2021/06/05 09:20:42;;;;;;;4.25;2.10;;;26.30;55.40;;;;;;4955309;28;20034;-89
2021/06/05 09:22:45;;;;;;;2.90;1.92;;;26.10;55.40;;;;;;4943530;28;20019;-87
2021/06/05 09:25:42;;;;;;;6.57;2.10;;;26.10;55.10;;;;;;4938891;29;20063;-87
2021/06/05 09:28:35;;;;;;;2.35;1.80;;;26.10;55.10;;;;;;4951782;28;20078;-88
2021/06/05 09:31:29;;;;;;;4.43;2.30;;;26.20;55.30;;;;;;4935784;28;20031;-88
2021/06/05 09:34:14;;;;;;;4.60;2.00;;;26.30;55.70;;;;;;4935998;29;20030;-86
2021/06/05 09:36:43;;;;;;;6.30;2.30;;;26.50;55.80;;;;;;4938737;29;20067;-87
2021/06/05 09:39:50;;;;;;;4.60;2.05;;;26.80;55.70;;;;;;4924066;29;20154;-86
2021/06/05 09:42:39;;;;;;;6.28;2.28;;;26.90;55.60;;;;;;5004413;28;20097;-87
2021/06/05 09:45:17;;;;;;;5.75;2.20;;;27.30;55.70;;;;;;5011203;28;20474;-87
2021/06/05 09:47:43;;;;;;;3.50;2.03;;;27.40;55.10;;;;;;4991625;28;20041;-87
2021/06/05 09:50:38;;;;;;;5.20;2.10;;;27.50;54.90;;;;;;4997621;28;20065;-87
2021/06/05 09:53:36;;;;;;;5.72;1.90;;;27.60;54.70;;;;;;4961791;28;20041;-87
2021/06/05 09:56:13;;;;;;;2.58;1.85;;;27.60;54.30;;;;;;4996734;28;20509;-87
2021/06/05 09:58:42;;;;;;;4.03;2.15;;;27.60;54.20;;;;;;4996833;28;20022;-87
2021/06/05 10:01:25;;;;;;;4.10;2.20;;;27.60;53.70;;;;;;5008542;28;20042;-87
2021/06/05 10:03:55;;;;;;;4.60;2.00;;;27.60;53.70;;;;;;5013525;28;20067;-87
2021/06/05 10:06:45;;;;;;;3.42;1.92;;;27.50;53.50;;;;;;4997099;28;20091;-88
2021/06/05 10:09:22;;;;;;;4.00;2.13;;;27.50;53.30;;;;;;5018398;28;20068;-86
2021/06/05 10:12:02;;;;;;;3.78;2.03;;;27.50;53.30;;;;;;5014483;28;20025;-87
2021/06/05 10:14:56;;;;;;;4.47;2.20;;;27.50;53.90;;;;;;5013892;28;20173;-86
2021/06/05 10:17:36;;;;;;;4.60;2.00;;;27.60;53.40;;;;;;5009874;28;20509;-87
2021/06/05 10:20:18;;;;;;;4.93;2.15;;;27.60;52.80;;;;;;5018773;28;20029;-86
2021/06/05 10:22:45;;;;;;;4.25;2.13;;;27.40;52.20;;;;;;5013568;28;20076;-86
2021/06/05 10:25:32;;;;;;;5.47;2.40;;;27.30;52.80;;;;;;5014150;28;20025;-86
2021/06/05 10:28:22;;;;;;;4.07;2.10;;;27.40;53.10;;;;;;5013157;28;20112;-86
2021/06/05 10:30:52;;;;;;;3.70;1.95;;;27.50;53.00;;;;;;5019034;28;20045;-86
2021/06/05 10:33:57;;;;;;;5.50;2.10;;;27.50;52.70;;;;;;5014741;28;20018;-86
2021/06/05 10:36:29;;;;;;;6.18;2.22;;;27.40;52.10;;;;;;5010611;28;20153;-86
2021/06/05 10:39:47;;;;;;;5.05;2.00;;;27.20;51.60;;;;;;5012404;28;20117;-88
2021/06/05 10:45:54;;;;;;;1.83;1.63;;;26.90;51.90;;;;;;5006839;28;20029;-87
2021/06/05 10:52:06;;;;;;;2.95;1.80;;;26.80;52.10;;;;;;5004447;28;20065;-87
2021/06/05 10:54:48;;;;;;;3.67;1.73;;;26.80;52.10;;;;;;5009089;28;20018;-87
2021/06/05 10:58:04;;;;;;;4.90;1.73;;;26.80;51.90;;;;;;5012612;28;20084;-88
2021/06/05 11:00:55;;;;;;;4.95;1.98;;;26.80;51.80;;;;;;5006559;28;20041;-87
2021/06/05 11:03:26;;;;;;;2.67;1.70;;;26.90;52.30;;;;;;4998571;28;20045;-88
2021/06/05 11:06:46;;;;;;;;;;;;;;;;;;;;;
2021/06/05 11:09:29;;;;;;;3.28;1.23;;;26.70;51.10;;;;;;5012746;28;20056;-88
2021/06/05 11:12:00;;;;;;;4.60;2.35;;;26.50;50.70;;;;;;4996994;28;20053;-87
2021/06/05 11:25:46;;;;;;;6.30;2.60;;;23.10;58.40;;;;;;4953510;28;20094;-89
2021/06/05 11:31:39;;;;;;;8.32;2.92;;;22.50;65.50;;;;;;5019619;23;20354;-85
2021/06/05 11:34:06;;;;;;;6.85;3.10;;;22.40;67.70;;;;;;4990027;28;20029;-85
2021/06/05 11:36:38;;;;;;;6.70;2.67;;;22.40;70.90;;;;;;5000191;28;20424;-84
2021/06/05 11:39:29;;;;;;;9.38;2.90;;;22.60;72.20;;;;;;5012807;28;20053;-85
2021/06/05 11:41:59;;;;;;;7.20;3.15;;;22.70;73.90;;;;;;4991704;28;20046;-85
2021/06/05 11:44:41;;;;;;;7.30;2.90;;;22.70;76.10;;;;;;5006600;28;20022;-85
2021/06/05 11:47:15;;;;;;;7.85;2.83;;;22.90;77.20;;;;;;5012816;28;20022;-85
2021/06/05 11:49:44;;;;;;;5.22;2.63;;;23.00;79.50;;;;;;5012959;28;20041;-85
2021/06/05 11:52:28;;;;;;;6.43;2.80;;;23.20;82.00;;;;;;5013286;28;20068;-84
2021/06/05 11:55:06;;;;;;;7.03;2.92;;;23.30;83.10;;;;;;5006359;28;20112;-84
2021/06/05 11:57:35;;;;;;;7.25;3.20;;;23.40;85.50;;;;;;5013139;28;20030;-84
2021/06/05 12:00:05;;;;;;;6.93;3.00;;;23.50;86.20;;;;;;5025314;28;20040;-84
2021/06/05 12:02:35;;;;;;;8.27;2.88;;;23.70;88.70;;;;;;5009312;28;20071;-84
2021/06/05 12:05:21;;;;;;;5.43;2.90;;;23.80;90.30;;;;;;5010807;28;20029;-84
2021/06/05 12:07:47;;;;;;;6.88;2.88;;;24.00;90.90;;;;;;5021611;28;20473;-84
2021/06/05 12:10:36;;;;;;;6.40;2.80;;;24.00;91.10;;;;;;5022968;28;20496;-84
2021/06/05 12:13:04;;;;;;;4.80;2.80;;;23.90;90.90;;;;;;5013013;28;20018;-85
2021/06/05 12:15:37;;;;;;;6.30;2.65;;;23.80;91.50;;;;;;5012573;28;20026;-85
2021/06/05 12:18:07;;;;;;;7.78;2.88;;;23.70;91.60;;;;;;5017846;28;20413;-84
2021/06/05 12:20:49;;;;;;;6.65;2.92;;;23.80;92.40;;;;;;5017899;28;20025;-84
2021/06/05 12:23:30;;;;;;;7.10;2.83;;;24.20;93.20;;;;;;4996074;28;20111;-84
2021/06/05 12:26:06;;;;;;;7.63;2.80;;;24.50;93.30;;;;;;5012946;28;20100;-84
2021/06/05 12:28:38;;;;;;;6.50;2.55;;;24.90;93.80;;;;;;5013030;28;20092;-84
2021/06/05 12:31:25;;;;;;;8.50;2.92;;;25.20;93.60;;;;;;5005699;28;20050;-84
2021/06/05 12:34:03;;;;;;;6.35;3.17;;;25.40;93.00;;;;;;5011717;28;20492;-84
2021/06/05 12:36:34;;;;;;;6.95;2.78;;;25.40;93.00;;;;;;5013265;28;20038;-84
2021/06/05 12:39:26;;;;;;;7.13;2.60;;;25.60;93.70;;;;;;5012468;28;20104;-85
2021/06/05 12:41:53;;;;;;;5.38;2.25;;;25.90;93.70;;;;;;5010548;28;20026;-84
2021/06/05 12:44:29;;;;;;;6.45;2.60;;;25.90;93.10;;;;;;5012061;28;20026;-85
2021/06/05 12:46:57;;;;;;;5.93;2.40;;;25.80;93.30;;;;;;5012599;28;20085;-85
2021/06/05 12:49:27;;;;;;;5.20;2.50;;;25.80;94.00;;;;;;5013038;28;20121;-85
2021/06/05 12:51:55;;;;;;;5.20;2.55;;;26.10;94.60;;;;;;5012815;28;20505;-85
2021/06/05 12:54:45;;;;;;;8.70;2.70;;;26.30;94.80;;;;;;5012636;28;20031;-84
2021/06/05 12:57:38;;;;;;;5.95;3.00;;;26.50;95.20;;;;;;5009393;28;20022;-84
2021/06/05 13:00:17;;;;;;;5.28;2.55;;;26.80;95.70;;;;;;5012387;28;20104;-84
2021/06/05 13:02:43;;;;;;;6.22;2.53;;;27.30;96.00;;;;;;5012742;28;20496;-84
2021/06/05 13:05:09;;;;;;;5.65;2.58;;;28.20;97.90;;;;;;5011814;28;20065;-84
2021/06/05 13:07:37;;;;;;;4.40;2.45;;;29.60;99.70;;;;;;4994961;28;20461;-85
2021/06/05 13:10:19;;;;;;;7.60;2.30;;;30.80;99.70;;;;;;5012436;28;20041;-83
2021/06/05 13:12:45;;;;;;;5.63;2.90;;;31.80;98.50;;;;;;5012292;28;20592;-83
2021/06/05 13:15:13;;;;;;;10.25;5.97;;;33.00;99.30;;;;;;5011666;28;20099;-82
2021/06/05 13:17:52;;;;;;;6.57;2.53;;;34.30;99.90;;;;;;5012527;28;20037;-82
2021/06/05 13:20:17;;;;;;;5.22;2.80;;;35.90;99.90;;;;;;5015149;28;20437;-84
2021/06/05 13:22:43;;;;;;;3.80;2.35;;;36.30;97.20;;;;;;5012323;28;20033;-83
2021/06/05 13:25:15;;;;;;;3.38;2.30;;;35.90;94.70;;;;;;5012336;28;20033;-84
2021/06/05 13:28:00;;;;;;;4.38;2.60;;;36.60;98.10;;;;;;5015413;28;20108;-83
2021/06/05 13:30:43;;;;;;;3.92;2.40;;;37.70;98.10;;;;;;5015041;28;20049;-84
2021/06/05 13:33:33;;;;;;;3.28;2.13;;;39.00;99.00;;;;;;5015496;28;20026;-84
2021/06/05 13:36:04;;;;;;;5.75;2.53;;;40.50;99.60;;;;;;5013639;28;20026;-83
2021/06/05 13:38:30;;;;;;;3.80;2.40;;;41.00;95.80;;;;;;5012977;28;20101;-83
2021/06/05 13:40:59;;;;;;;7.35;3.28;;;41.40;96.50;;;;;;5015413;28;20022;-83
2021/06/05 13:43:26;;;;;;;4.85;2.60;;;42.10;95.70;;;;;;5015679;28;20018;-83
2021/06/05 13:45:52;;;;;;;3.25;2.28;;;42.30;94.20;;;;;;4997453;28;20970;-83
2021/06/05 13:48:18;;;;;;;5.80;2.85;;;42.30;93.50;;;;;;5015344;28;20033;-84
2021/06/05 13:50:43;;;;;;;4.55;2.20;;;42.30;93.40;;;;;;5015268;28;20026;-83
2021/06/05 13:53:30;;;;;;;3.08;2.03;;;42.40;94.10;;;;;;5015178;28;20089;-84
2021/06/05 13:56:02;;;;;;;4.22;2.03;;;42.80;94.30;;;;;;5015635;28;20454;-84
2021/06/05 13:58:28;;;;;;;3.33;2.05;;;43.60;94.40;;;;;;5015058;28;20026;-84
2021/06/05 14:00:54;;;;;;;3.35;2.00;;;44.30;94.90;;;;;;5014878;28;20026;-84
2021/06/05 14:03:21;;;;;;;3.17;2.00;;;44.70;93.50;;;;;;5014506;28;20432;-84
2021/06/05 14:05:47;;;;;;;2.20;1.85;;;44.60;92.10;;;;;;5014959;28;20026;-84
2021/06/05 14:08:13;;;;;;;2.45;1.80;;;44.80;93.10;;;;;;5014467;28;20021;-84
2021/06/05 14:10:40;;;;;;;4.40;2.20;;;45.40;92.90;;;;;;5015111;28;20081;-84
2021/06/05 14:13:08;;;;;;;4.30;2.30;;;45.30;90.40;;;;;;5015103;28;20486;-84
2021/06/05 14:16:01;;;;;;;5.72;2.70;;;45.10;91.50;;;;;;5008019;28;20018;-83
2021/06/05 14:18:30;;;;;;;4.07;2.33;;;45.20;91.10;;;;;;5004889;28;20036;-83
2021/06/05 14:20:58;;;;;;;3.00;2.10;;;45.20;90.80;;;;;;5015045;28;20072;-84
2021/06/05 14:23:25;;;;;;;4.18;2.28;;;45.50;92.00;;;;;;5016167;28;20105;-85
2021/06/05 14:25:53;;;;;;;3.63;2.08;;;45.40;90.10;;;;;;5020981;28;20056;-84
2021/06/05 14:28:21;;;;;;;4.50;2.50;;;45.80;91.70;;;;;;5014146;28;20553;-84
2021/06/05 14:30:50;;;;;;;4.78;2.47;;;46.30;89.30;;;;;;5014669;28;20064;-85
2021/06/05 14:33:17;;;;;;;2.88;2.20;;;46.90;90.30;;;;;;5014576;28;20466;-84
2021/06/05 14:35:43;;;;;;;4.47;2.30;;;47.90;91.80;;;;;;5014926;28;20473;-85
2021/06/05 14:38:11;;;;;;;3.88;2.20;;;48.50;89.70;;;;;;5014169;28;20033;-85
2021/06/05 14:40:37;;;;;;;5.07;2.28;;;48.50;83.20;;;;;;5021180;28;20048;-85
2021/06/05 14:43:04;;;;;;;3.33;2.15;;;48.30;85.50;;;;;;4997030;28;20474;-84
2021/06/05 14:45:36;;;;;;;5.15;2.30;;;48.50;84.70;;;;;;5014510;28;20049;-84
2021/06/05 14:48:04;;;;;;;4.22;2.30;;;48.70;83.70;;;;;;5014752;28;20022;-84
2021/06/05 14:50:30;;;;;;;3.42;2.00;;;48.50;83.50;;;;;;5014307;28;20096;-85
2021/06/05 14:52:56;;;;;;;2.78;2.00;;;49.20;84.60;;;;;;5014415;28;20024;-85
2021/06/05 14:55:25;;;;;;;3.22;2.00;;;48.30;75.40;;;;;;5014035;28;20022;-84
2021/06/05 14:57:51;;;;;;;5.28;2.10;;;46.30;73.20;;;;;;5014430;28;20025;-84
2021/06/05 15:00:17;;;;;;;4.43;1.77;;;44.50;71.30;;;;;;5014499;28;20462;-84
2021/06/05 15:02:44;;;;;;;3.85;2.00;;;42.80;72.50;;;;;;5014554;28;20377;-84
2021/06/05 15:05:12;;;;;;;2.92;2.10;;;41.30;75.80;;;;;;5014400;28;20152;-84
2021/06/05 15:07:37;;;;;;;4.10;2.42;;;40.30;80.90;;;;;;5013446;28;20072;-84
2021/06/05 15:10:04;;;;;;;5.68;3.00;;;40.00;81.50;;;;;;5001810;28;20030;-84
2021/06/05 15:12:31;;;;;;;4.68;2.10;;;39.80;83.40;;;;;;5024979;28;20045;-84
2021/06/05 15:14:57;;;;;;;5.30;2.08;;;39.30;80.30;;;;;;5004323;28;20061;-84
2021/06/05 15:17:23;;;;;;;3.05;1.80;;;38.70;82.10;;;;;;5016041;28;20022;-85
2021/06/05 15:19:48;;;;;;;5.25;3.08;;;38.50;83.40;;;;;;5019756;28;20025;-84
2021/06/05 15:22:14;;;;;;;4.65;2.00;;;38.30;86.50;;;;;;4996517;28;20125;-84
2021/06/05 15:24:40;;;;;;;4.50;2.10;;;38.60;84.10;;;;;;5013848;28;20148;-84
2021/06/05 15:27:07;;;;;;;7.32;3.80;;;37.90;82.10;;;;;;5023484;28;20033;-84
2021/06/05 15:29:33;;;;;;;5.15;2.38;;;37.40;82.40;;;;;;5007327;28;20042;-84
2021/06/05 15:31:59;;;;;;;5.35;2.22;;;36.70;81.80;;;;;;5014097;28;20025;-84
2021/06/05 15:34:25;;;;;;;3.22;2.00;;;36.20;83.80;;;;;;5014097;28;20122;-85
2021/06/05 15:36:52;;;;;;;5.85;2.30;;;35.90;85.50;;;;;;5016633;28;20099;-84
2021/06/05 15:39:18;;;;;;;4.88;2.20;;;35.30;82.50;;;;;;5020151;28;20140;-84
2021/06/05 15:41:45;;;;;;;3.17;1.80;;;34.60;83.60;;;;;;5027813;28;20112;-85
2021/06/05 15:44:11;;;;;;;4.97;2.30;;;34.00;84.30;;;;;;5013638;28;20056;-86
2021/06/05 15:46:36;;;;;;;3.08;2.15;;;33.30;83.30;;;;;;5016871;28;20061;-85
2021/06/05 15:49:03;;;;;;;4.88;2.17;;;32.60;84.70;;;;;;5021222;28;20517;-84
2021/06/05 15:51:38;;;;;;;3.75;2.10;;;32.00;84.70;;;;;;5017950;28;20025;-84
2021/06/05 15:54:09;;;;;;;5.57;2.67;;;31.60;86.70;;;;;;5013507;28;20025;-81
2021/06/05 15:56:37;;;;;;;6.57;3.47;;;31.20;86.80;;;;;;5006545;28;20486;-81
2021/06/05 15:59:05;;;;;;;5.70;3.00;;;30.80;87.40;;;;;;5017607;28;20113;-81
2021/06/05 16:01:31;;;;;;;5.38;2.35;;;30.50;88.60;;;;;;5012535;28;20068;-81
2021/06/05 16:04:00;;;;;;;3.90;2.50;;;30.30;88.90;;;;;;5013250;28;20030;-84
2021/06/05 16:06:26;;;;;;;4.55;2.30;;;30.00;89.60;;;;;;5013051;28;20018;-81
2021/06/05 16:08:53;;;;;;;4.50;2.47;;;29.90;90.30;;;;;;5020269;28;20057;-82
2021/06/05 16:11:21;;;;;;;6.38;2.90;;;29.70;90.10;;;;;;5011480;28;20053;-83
2021/06/05 16:13:46;;;;;;;7.13;3.10;;;29.40;89.90;;;;;;5013121;28;20022;-82
2021/06/05 16:16:15;;;;;;;3.90;2.40;;;29.10;90.20;;;;;;5017852;28;20088;-82
2021/06/05 16:18:42;;;;;;;3.45;2.20;;;28.90;90.30;;;;;;5013286;28;20088;-82
2021/06/05 16:21:12;;;;;;;3.90;2.15;;;28.60;90.40;;;;;;5013008;28;20112;-82
2021/06/05 16:23:39;;;;;;;4.50;2.38;;;28.30;90.30;;;;;;5012869;28;20029;-81
2021/06/05 16:26:07;;;;;;;5.57;2.60;;;28.10;90.90;;;;;;5013257;28;20014;-81
2021/06/05 16:28:32;;;;;;;4.95;2.25;;;28.00;91.20;;;;;;5012904;28;20470;-83
2021/06/05 16:30:58;;;;;;;4.75;2.45;;;27.60;89.60;;;;;;5012987;28;20065;-82
2021/06/05 16:33:24;;;;;;;6.32;2.88;;;27.20;90.00;;;;;;4995429;28;20045;-84
2021/06/05 16:35:54;;;;;;;6.65;2.72;;;26.70;88.80;;;;;;5013125;28;20037;-83
2021/06/05 16:38:22;;;;;;;7.05;2.80;;;26.30;90.00;;;;;;5012790;28;20025;-82
2021/06/05 16:40:49;;;;;;;5.82;2.65;;;26.00;90.60;;;;;;5020284;28;20481;-83
2021/06/05 16:43:23;;;;;;;5.90;2.70;;;25.90;91.10;;;;;;5013206;28;20056;-84
2021/06/05 16:45:49;;;;;;;9.90;4.55;;;25.80;91.30;;;;;;5012502;28;20118;-86
2021/06/05 16:48:14;;;;;;;7.70;2.65;;;25.80;91.70;;;;;;5013144;28;20096;-84
2021/06/05 16:50:43;;;;;;;7.63;3.03;;;25.60;91.00;;;;;;5012651;28;20050;-83
2021/06/05 16:53:11;;;;;;;5.20;2.33;;;25.40;90.90;;;;;;4994849;28;20037;-83
2021/06/05 16:55:38;;;;;;;5.30;2.60;;;25.20;90.80;;;;;;5006574;28;20010;-83
2021/06/05 16:58:05;;;;;;;4.30;2.42;;;25.00;91.10;;;;;;5012317;28;20028;-83
2021/06/05 17:00:40;;;;;;;5.07;2.75;;;24.90;91.70;;;;;;5001309;28;20022;-83
2021/06/05 17:03:07;;;;;;;6.38;2.40;;;24.90;91.80;;;;;;5015369;28;20064;-83
2021/06/05 17:05:33;;;;;;;7.00;3.20;;;24.80;92.00;;;;;;5016395;28;20022;-83
2021/06/05 17:07:59;;;;;;;6.85;3.00;;;24.80;92.10;;;;;;5016728;28;20449;-83
2021/06/05 17:10:26;;;;;;;6.05;2.70;;;24.80;92.10;;;;;;5016154;28;20065;-82
2021/06/05 17:12:53;;;;;;;6.80;2.50;;;24.80;92.30;;;;;;5015954;28;20048;-82
2021/06/05 17:15:25;;;;;;;6.85;2.38;;;24.70;92.40;;;;;;5015900;28;20022;-82
2021/06/05 17:17:51;;;;;;;4.00;2.22;;;24.90;92.80;;;;;;5003012;28;20018;-82
2021/06/05 17:20:19;;;;;;;6.20;2.55;;;25.00;93.10;;;;;;5016022;28;20026;-82
2021/06/05 17:22:47;;;;;;;3.78;2.30;;;25.20;93.10;;;;;;5015841;28;20032;-83
2021/06/05 17:25:14;;;;;;;4.25;2.20;;;25.40;93.00;;;;;;5016285;28;20014;-83
2021/06/05 17:27:40;;;;;;;5.30;2.30;;;25.40;92.50;;;;;;5015909;28;20034;-82
2021/06/05 17:30:07;;;;;;;6.78;2.38;;;25.20;92.10;;;;;;5016001;28;20041;-82
2021/06/05 17:32:33;;;;;;;3.75;2.40;;;25.10;92.00;;;;;;5015662;28;20042;-82
2021/06/05 17:35:00;;;;;;;5.10;2.08;;;25.00;92.60;;;;;;5021560;28;20385;-82
2021/06/05 17:37:26;;;;;;;5.38;2.28;;;25.00;92.60;;;;;;5017692;28;20072;-81
2021/06/05 17:39:51;;;;;;;4.07;2.30;;;25.00;92.70;;;;;;4998288;28;20026;-84
2021/06/05 17:42:20;;;;;;;6.47;2.83;;;25.00;92.70;;;;;;5010036;28;20425;-82
2021/06/05 17:44:46;;;;;;;5.47;2.67;;;24.90;92.60;;;;;;5018292;28;20364;-83
2021/06/05 17:47:20;;;;;;;4.30;2.33;;;24.80;92.70;;;;;;5002495;28;20022;-84
2021/06/05 17:49:45;;;;;;;7.00;2.95;;;24.80;92.60;;;;;;5015821;28;20117;-84
2021/06/05 17:52:12;;;;;;;5.45;2.63;;;24.70;92.60;;;;;;5015179;28;20532;-86
2021/06/05 17:54:38;;;;;;;6.00;2.83;;;24.50;92.10;;;;;;5015586;28;20018;-82
2021/06/05 17:57:07;;;;;;;13.25;3.17;;;24.20;91.70;;;;;;4996495;28;20512;-82
2021/06/05 17:59:32;;;;;;;7.68;3.08;;;23.90;91.70;;;;;;5015633;28;20098;-82
2021/06/05 18:01:59;;;;;;;6.93;3.05;;;23.50;91.50;;;;;;5015305;28;20029;-83
2021/06/05 18:04:30;;;;;;;5.95;2.45;;;23.30;91.20;;;;;;4997325;28;20402;-86
2021/06/05 18:06:56;;;;;;;7.32;2.72;;;22.90;91.70;;;;;;5014728;28;20014;-86
2021/06/05 18:09:22;;;;;;;6.40;2.58;;;22.70;92.00;;;;;;5020953;28;20029;-86
2021/06/05 18:11:50;;;;;;;9.40;3.15;;;22.50;91.70;;;;;;5015579;28;20149;-86
2021/06/05 18:14:20;;;;;;;12.20;3.50;;;22.10;91.20;;;;;;5014531;28;20417;-86
2021/06/05 18:16:48;;;;;;;10.10;3.20;;;21.70;91.20;;;;;;4998555;28;20026;-86
2021/06/05 18:19:16;;;;;;;9.20;3.42;;;21.50;91.60;;;;;;5015051;28;20014;-87
2021/06/05 18:21:44;;;;;;;8.13;3.40;;;21.30;91.70;;;;;;4997304;28;20054;-85
2021/06/05 18:24:12;;;;;;;13.38;3.58;;;20.90;91.30;;;;;;5007885;28;20030;-84
2021/06/05 18:26:38;;;;;;;7.45;3.25;;;20.50;90.70;;;;;;5021075;28;20045;-84
2021/06/05 18:29:06;;;;;;;11.77;3.05;;;20.10;91.20;;;;;;5001972;28;20072;-83
2021/06/05 18:31:33;;;;;;;8.00;2.85;;;19.80;91.90;;;;;;5026319;28;20125;-83
2021/06/05 18:33:59;;;;;;;8.65;2.97;;;19.70;92.10;;;;;;4999575;28;20045;-83
2021/06/05 18:36:27;;;;;;;6.63;2.15;;;19.50;92.60;;;;;;5014517;28;20018;-83
2021/06/05 18:38:54;;;;;;;4.78;2.38;;;19.50;92.90;;;;;;4980799;28;20092;-83
2021/06/05 18:41:25;;;;;;;9.80;2.92;;;19.40;92.80;;;;;;4996995;28;20064;-83
2021/06/05 18:43:52;;;;;;;7.40;2.67;;;19.30;93.20;;;;;;5014210;28;20485;-84
2021/06/05 18:46:18;;;;;;;6.35;2.90;;;19.20;92.80;;;;;;4996973;28;20025;-84
2021/06/05 18:48:47;;;;;;;8.05;3.30;;;19.00;93.10;;;;;;5014043;28;20026;-83
2021/06/05 18:51:16;;;;;;;5.35;2.33;;;18.90;93.20;;;;;;5014118;28;20101;-82
2021/06/05 18:53:43;;;;;;;7.53;3.42;;;18.80;93.40;;;;;;4990537;28;20433;-83
2021/06/05 18:56:09;;;;;;;7.13;3.50;;;18.70;93.80;;;;;;4997973;28;20029;-83
2021/06/05 18:58:43;;;;;;;7.72;3.33;;;18.70;94.10;;;;;;5014120;28;20021;-83
2021/06/05 19:01:11;;;;;;;7.85;3.80;;;18.70;94.30;;;;;;5014062;28;20060;-83
2021/06/05 19:03:37;;;;;;;9.93;4.32;;;18.70;94.50;;;;;;5012779;28;20026;-83
2021/06/05 19:06:04;;;;;;;8.13;3.95;;;18.70;94.50;;;;;;5014264;28;20026;-83
2021/06/05 19:08:31;;;;;;;9.13;3.97;;;18.70;94.80;;;;;;5018682;28;20045;-83
2021/06/05 19:10:59;;;;;;;9.23;4.45;;;18.70;94.90;;;;;;5013914;28;20026;-83
2021/06/05 19:13:26;;;;;;;7.97;4.45;;;18.70;95.00;;;;;;5013682;28;20137;-83
2021/06/05 19:15:54;;;;;;;10.20;4.70;;;18.60;95.00;;;;;;5013140;28;20029;-83
2021/06/05 19:18:22;;;;;;;9.52;4.90;;;18.60;95.10;;;;;;5013259;28;20018;-83
2021/06/05 19:20:48;;;;;;;8.98;3.72;;;18.60;95.40;;;;;;5013553;28;20026;-82